Willseyville, New York
Current Conditions -  °F | °C
As of 8:56 PM on Tuesday 21 Oct 2014 (Local Time) from KITH Reporting Station
Overcast Overcast  
Wind Chill: 50°   Ceiling: 2500
Heat Index: 50°   Visibility: 10mi
Dew Point: 48°   Wind: 6mph
Humidity: 92%   Direction: 10°N
Pressure: 29.96"   Gusts: NA
Location:  42.29°N, 76.38°W
Report Text: KITH 220056Z 01005KT 10SM OVC025 10/09 A2996 RMK AO2 T01000088 SLP151
Loading
Personal Weather Stations






























Interactive Weather Map New forecast layout! Learn more

10-Day Weather Forecast

Advertisements
Track Severe Weather on mobile